Time;durP1;ratioP1;P1;durP2;ratioP2;P2;SDS_P1;SDS_P2;PMS_P1;PMS_P2;Temp;Humidity;BMP_temperature;BMP_pressure;BME280_temperature;BME280_humidity;BME280_pressure;Samples;Min_cycle;Max_cycle;Signal;HPM_P1;HPM_P2
2024/01/14 00:00:10;;;;;;;128.48;67.38;;;-0.90;99.90;;;;;;5047117;28;20046;-52
2024/01/14 00:02:38;;;;;;;108.70;57.83;;;-0.90;99.90;;;;;;5038263;28;20048;-51
2024/01/14 00:05:05;;;;;;;158.40;82.35;;;-1.30;99.90;;;;;;5025953;28;20092;-52
2024/01/14 00:07:31;;;;;;;95.25;54.88;;;-1.50;99.90;;;;;;4984746;28;20120;-51
2024/01/14 00:09:58;;;;;;;98.95;54.55;;;-1.60;99.90;;;;;;5044076;28;20115;-51
2024/01/14 00:12:25;;;;;;;82.43;44.47;;;-1.60;99.90;;;;;;5049190;28;20029;-53
2024/01/14 00:14:51;;;;;;;81.65;45.58;;;-1.70;99.90;;;;;;5043014;28;20036;-51
2024/01/14 00:17:16;;;;;;;99.75;52.50;;;-1.80;99.90;;;;;;5044599;28;20112;-51
2024/01/14 00:19:43;;;;;;;104.53;53.17;;;-2.00;99.90;;;;;;5029775;28;20041;-52
2024/01/14 00:22:08;;;;;;;82.72;42.80;;;-2.00;99.90;;;;;;5042265;28;20029;-51
2024/01/14 00:24:35;;;;;;;85.45;43.03;;;;;;;;;;5039491;28;20028;-51
2024/01/14 00:27:00;;;;;;;69.35;39.25;;;-2.40;99.90;;;;;;5044536;28;20030;-51
2024/01/14 00:29:26;;;;;;;65.65;38.00;;;-2.30;99.90;;;;;;5049192;28;20029;-52
2024/01/14 00:31:52;;;;;;;67.90;37.55;;;-2.40;99.90;;;;;;5056321;28;20496;-52
2024/01/14 00:34:18;;;;;;;62.38;34.95;;;-2.30;99.90;;;;;;5054689;28;20037;-52
2024/01/14 00:36:43;;;;;;;67.10;38.35;;;-2.20;99.90;;;;;;5048278;28;20054;-51
2024/01/14 00:39:10;;;;;;;58.05;31.33;;;-2.30;99.90;;;;;;5045331;28;20131;-51
2024/01/14 00:41:36;;;;;;;58.85;32.20;;;-2.50;99.90;;;;;;5045141;28;20412;-51
2024/01/14 00:44:02;;;;;;;51.88;28.73;;;-2.40;99.90;;;;;;5028091;28;20029;-51
2024/01/14 00:46:27;;;;;;;58.60;32.25;;;-2.50;99.90;;;;;;5045127;28;20056;-52
2024/01/14 00:48:53;;;;;;;43.72;27.40;;;-2.70;99.90;;;;;;5041394;28;20473;-51
2024/01/14 00:51:19;;;;;;;48.63;30.33;;;-2.60;99.90;;;;;;5046862;28;20039;-52
2024/01/14 00:53:45;;;;;;;64.10;35.60;;;-2.20;99.90;;;;;;5044177;28;20376;-52
2024/01/14 00:56:12;;;;;;;55.03;33.22;;;-1.80;99.90;;;;;;5039943;28;20128;-52
2024/01/14 00:58:38;;;;;;;48.35;29.52;;;-1.50;99.90;;;;;;5047195;28;20040;-52
2024/01/14 01:01:04;;;;;;;42.92;25.17;;;-1.50;99.90;;;;;;5042834;28;20089;-51
2024/01/14 01:03:29;;;;;;;49.75;29.02;;;-2.00;99.90;;;;;;5041096;28;20088;-52
2024/01/14 01:05:55;;;;;;;45.10;26.38;;;-2.20;99.90;;;;;;5047926;28;20032;-52
2024/01/14 01:08:22;;;;;;;29.10;16.70;;;-2.50;99.90;;;;;;5044913;28;20029;-52
2024/01/14 01:10:49;;;;;;;42.15;25.67;;;;;;;;;;5046337;28;20041;-51
2024/01/14 01:13:15;;;;;;;44.10;27.27;;;-2.80;99.90;;;;;;5044337;28;20051;-52
2024/01/14 01:15:40;;;;;;;47.97;28.35;;;-2.70;99.90;;;;;;5046940;28;20033;-52
2024/01/14 01:18:06;;;;;;;36.80;23.98;;;-2.60;99.90;;;;;;5042774;28;20106;-51
2024/01/14 01:20:32;;;;;;;46.30;25.40;;;-2.60;99.90;;;;;;5048476;28;20041;-51
2024/01/14 01:22:58;;;;;;;40.63;25.73;;;-2.40;99.90;;;;;;5040025;28;20044;-51
2024/01/14 01:25:25;;;;;;;41.95;26.83;;;-2.00;99.90;;;;;;5045588;28;20111;-51
2024/01/14 01:27:51;;;;;;;51.65;29.33;;;-2.00;99.90;;;;;;5041215;28;20735;-51
2024/01/14 01:30:17;;;;;;;51.50;31.52;;;-1.70;99.90;;;;;;5038736;28;20022;-52
2024/01/14 01:32:43;;;;;;;57.45;34.78;;;-1.40;99.90;;;;;;5045301;28;20522;-52
2024/01/14 01:35:08;;;;;;;77.65;44.10;;;-1.20;99.90;;;;;;5034117;28;20037;-52
2024/01/14 01:37:34;;;;;;;70.85;41.13;;;-1.00;99.90;;;;;;5042482;28;20435;-52
2024/01/14 01:40:00;;;;;;;69.63;39.63;;;-0.90;99.90;;;;;;5041172;28;20040;-51
2024/01/14 01:42:26;;;;;;;68.07;39.25;;;-0.90;99.90;;;;;;5045686;28;20037;-51
2024/01/14 01:44:52;;;;;;;76.07;41.97;;;;;;;;;;5040199;28;20123;-51
2024/01/14 01:47:19;;;;;;;60.05;36.40;;;-0.70;99.90;;;;;;5041160;28;20021;-52
2024/01/14 01:49:45;;;;;;;58.20;36.22;;;-0.60;99.90;;;;;;5043888;28;20029;-51
2024/01/14 01:52:11;;;;;;;58.25;36.45;;;-0.50;99.90;;;;;;5039364;28;20036;-51
2024/01/14 01:54:39;;;;;;;55.35;35.33;;;-0.30;99.90;;;;;;5034134;28;20117;-51
2024/01/14 01:57:06;;;;;;;59.30;35.35;;;-0.40;99.90;;;;;;5041913;28;20152;-51
2024/01/14 01:59:31;;;;;;;59.00;36.28;;;-0.60;99.90;;;;;;5040163;28;20053;-52
2024/01/14 02:02:00;;;;;;;67.90;36.63;;;-0.30;99.90;;;;;;5042539;28;20031;-51
2024/01/14 02:04:26;;;;;;;50.67;31.05;;;-0.30;99.90;;;;;;5045259;28;20036;-51
2024/01/14 02:06:52;;;;;;;42.13;27.08;;;-0.40;99.90;;;;;;5036375;28;20029;-51
2024/01/14 02:09:18;;;;;;;40.65;26.48;;;-0.60;99.90;;;;;;5041470;28;20037;-53
2024/01/14 02:11:45;;;;;;;40.45;27.88;;;;;;;;;;5037292;28;20108;-53
2024/01/14 02:14:10;;;;;;;43.38;25.73;;;-0.80;99.90;;;;;;5041734;28;20036;-51
2024/01/14 02:16:36;;;;;;;37.35;23.77;;;-1.10;99.90;;;;;;5037024;28;20033;-51
2024/01/14 02:19:02;;;;;;;51.90;30.75;;;-1.00;99.90;;;;;;5037969;28;20053;-51
2024/01/14 02:21:36;;;;;;;58.95;28.83;;;-1.40;99.90;;;;;;5044963;28;20039;-51
2024/01/14 02:24:31;;;;;;;45.28;27.65;;;-2.30;99.90;;;;;;5040534;28;20329;-51
2024/01/14 02:26:57;;;;;;;42.38;25.92;;;-2.20;99.90;;;;;;5039368;28;20099;-51
2024/01/14 02:29:23;;;;;;;35.85;24.20;;;-2.10;99.90;;;;;;5038231;28;20030;-52
2024/01/14 02:31:49;;;;;;;40.63;24.65;;;-1.90;99.90;;;;;;5037441;28;20040;-51
2024/01/14 02:34:15;;;;;;;38.03;25.02;;;-1.50;99.90;;;;;;5046957;28;20427;-52
2024/01/14 02:36:41;;;;;;;34.78;22.48;;;-1.40;99.90;;;;;;5045319;28;20075;-53
2024/01/14 02:39:07;;;;;;;28.20;18.73;;;;;;;;;;5045566;28;20087;-51
2024/01/14 02:41:34;;;;;;;30.20;20.80;;;-2.50;99.90;;;;;;5041790;28;20037;-51
2024/01/14 02:43:59;;;;;;;26.20;16.88;;;-2.40;99.90;;;;;;5050760;28;20037;-51
2024/01/14 02:46:26;;;;;;;28.05;17.60;;;-2.50;99.90;;;;;;5039934;28;20041;-52
2024/01/14 02:48:52;;;;;;;30.58;17.92;;;-2.40;99.90;;;;;;5043216;28;20024;-51
2024/01/14 02:51:18;;;;;;;31.52;19.42;;;-2.40;99.90;;;;;;5057544;28;20613;-51
2024/01/14 02:53:43;;;;;;;30.20;20.88;;;-1.90;99.90;;;;;;5051182;28;20070;-53
2024/01/14 02:56:10;;;;;;;30.90;20.65;;;-1.70;99.90;;;;;;5046529;28;20064;-52
2024/01/14 02:58:36;;;;;;;36.08;21.42;;;-1.50;99.90;;;;;;5047170;28;20067;-52
2024/01/14 03:01:02;;;;;;;38.88;21.67;;;-1.30;99.90;;;;;;5037853;28;20623;-52
2024/01/14 03:03:28;;;;;;;36.00;21.15;;;-1.20;99.90;;;;;;5046083;28;20098;-52
2024/01/14 03:05:54;;;;;;;38.30;24.35;;;-1.00;99.90;;;;;;5048239;28;20492;-52
2024/01/14 03:08:19;;;;;;;33.33;19.58;;;-1.20;99.90;;;;;;5050646;28;20381;-51
2024/01/14 03:10:45;;;;;;;28.08;16.63;;;-1.60;99.80;;;;;;5009042;28;20086;-52
2024/01/14 03:13:14;;;;;;;25.27;16.48;;;-2.20;99.90;;;;;;5037276;28;20377;-52
2024/01/14 03:15:40;;;;;;;25.38;16.17;;;-2.20;99.90;;;;;;5048753;28;20112;-52
2024/01/14 03:18:06;;;;;;;21.88;13.82;;;-2.10;99.90;;;;;;5049396;28;20128;-51
2024/01/14 03:20:32;;;;;;;21.88;14.77;;;-2.40;99.90;;;;;;5042347;28;20030;-52
2024/01/14 03:22:58;;;;;;;22.30;14.02;;;-2.40;99.90;;;;;;5041794;28;20041;-51
2024/01/14 03:25:24;;;;;;;19.55;13.68;;;-2.00;99.90;;;;;;5043424;28;20060;-52
2024/01/14 03:27:49;;;;;;;22.90;13.93;;;-1.70;99.90;;;;;;5050289;28;20480;-52
2024/01/14 03:30:15;;;;;;;22.42;15.40;;;-1.50;99.90;;;;;;5047128;28;20491;-51
2024/01/14 03:32:41;;;;;;;28.25;17.98;;;-1.30;99.90;;;;;;5062171;28;20045;-51
2024/01/14 03:35:07;;;;;;;33.35;19.98;;;-1.20;99.90;;;;;;5043024;28;20477;-51
2024/01/14 03:37:32;;;;;;;29.77;18.63;;;-1.20;99.90;;;;;;5032509;28;20484;-53
2024/01/14 03:39:58;;;;;;;27.17;18.42;;;-1.00;99.60;;;;;;5046338;28;20035;-51
2024/01/14 03:42:24;;;;;;;29.92;18.10;;;-0.90;99.20;;;;;;5039725;28;20033;-52
2024/01/14 03:44:50;;;;;;;28.75;18.75;;;-1.00;99.10;;;;;;5046472;28;20056;-52
2024/01/14 03:47:15;;;;;;;32.42;19.42;;;-0.90;99.20;;;;;;5039556;28;20033;-52
2024/01/14 03:49:42;;;;;;;31.92;20.63;;;-1.30;99.90;;;;;;5040513;28;20017;-52
2024/01/14 03:52:07;;;;;;;27.90;17.23;;;-1.60;99.10;;;;;;5045413;28;20260;-51
2024/01/14 03:54:33;;;;;;;27.40;17.58;;;-1.50;99.90;;;;;;5040654;28;20087;-51
2024/01/14 03:56:59;;;;;;;26.27;17.08;;;-1.80;99.90;;;;;;5022840;28;20057;-51
2024/01/14 03:59:25;;;;;;;28.27;18.65;;;-1.40;99.90;;;;;;5043174;28;20057;-51
2024/01/14 04:01:51;;;;;;;26.75;15.88;;;-1.20;99.90;;;;;;5039133;28;20463;-51
2024/01/14 04:04:16;;;;;;;36.35;20.65;;;-1.80;99.90;;;;;;5042229;28;20032;-51
2024/01/14 04:06:42;;;;;;;34.53;21.38;;;-1.90;99.90;;;;;;5045163;28;20047;-52
2024/01/14 04:09:09;;;;;;;44.42;25.63;;;-1.80;99.90;;;;;;5047458;28;20038;-52
2024/01/14 04:11:35;;;;;;;45.50;26.60;;;-1.50;99.90;;;;;;5030044;28;20045;-51
2024/01/14 04:14:01;;;;;;;110.60;55.50;;;-1.30;99.90;;;;;;5042035;28;20538;-52
2024/01/14 04:16:34;;;;;;;71.65;39.53;;;-1.30;99.90;;;;;;5040968;28;20033;-51
2024/01/14 04:19:01;;;;;;;36.58;21.90;;;;;;;;;;5040385;28;20423;-51
2024/01/14 04:21:26;;;;;;;34.30;22.20;;;-1.00;99.10;;;;;;5048238;28;20088;-53
2024/01/14 04:23:52;;;;;;;34.65;20.95;;;-1.20;99.10;;;;;;5028366;28;20036;-52
2024/01/14 04:26:20;;;;;;;30.30;20.13;;;-1.20;99.40;;;;;;5048041;28;20072;-52
2024/01/14 04:28:46;;;;;;;37.92;23.35;;;-1.30;98.70;;;;;;5043478;28;20053;-52
2024/01/14 04:31:12;;;;;;;34.38;22.60;;;-1.30;99.60;;;;;;5041770;28;20208;-52
2024/01/14 04:33:38;;;;;;;31.35;20.98;;;-1.30;99.30;;;;;;5041612;28;20128;-51
2024/01/14 04:36:04;;;;;;;28.67;18.45;;;-1.30;99.10;;;;;;5044675;28;20021;-51
2024/01/14 04:38:30;;;;;;;25.77;16.80;;;-1.30;98.70;;;;;;5023961;28;20063;-51
2024/01/14 04:40:56;;;;;;;24.35;15.77;;;-1.30;99.70;;;;;;5045341;28;20032;-51
2024/01/14 04:43:21;;;;;;;29.35;17.83;;;-1.30;99.80;;;;;;5046881;28;20175;-53
2024/01/14 04:45:47;;;;;;;69.18;37.28;;;-1.10;99.60;;;;;;5041740;28;20373;-52
2024/01/14 04:48:13;;;;;;;51.28;30.85;;;-1.00;99.10;;;;;;4985246;28;20427;-52
2024/01/14 04:50:39;;;;;;;65.80;42.15;;;-1.00;98.90;;;;;;5046933;28;20175;-51
2024/01/14 04:53:06;;;;;;;59.03;35.05;;;-0.90;98.70;;;;;;5044085;28;21317;-51
2024/01/14 04:55:32;;;;;;;48.60;29.85;;;-0.80;98.50;;;;;;5052453;28;20616;-52
2024/01/14 04:57:58;;;;;;;42.47;26.50;;;-0.90;98.30;;;;;;5039057;28;20047;-51
2024/01/14 05:00:24;;;;;;;58.92;32.63;;;-1.00;98.00;;;;;;5042346;28;20061;-52
2024/01/14 05:02:50;;;;;;;67.88;36.97;;;-1.30;99.30;;;;;;5038620;28;20025;-51
2024/01/14 05:05:16;;;;;;;55.22;31.40;;;-1.60;99.90;;;;;;5043824;28;20367;-52
2024/01/14 05:07:41;;;;;;;54.15;30.90;;;-1.70;99.70;;;;;;5046535;28;20671;-53
2024/01/14 05:10:08;;;;;;;51.17;28.45;;;;;;;;;;5045166;28;20029;-52
2024/01/14 05:12:34;;;;;;;55.35;31.80;;;-2.80;99.90;;;;;;5036322;28;20082;-51
2024/01/14 05:15:00;;;;;;;38.55;24.65;;;-2.80;99.90;;;;;;5036836;28;20042;-51
2024/01/14 05:17:26;;;;;;;48.97;28.52;;;-3.10;99.90;;;;;;5041077;28;20039;-52
2024/01/14 05:19:53;;;;;;;45.70;27.75;;;-2.90;99.90;;;;;;5044386;28;20124;-52
2024/01/14 05:22:19;;;;;;;42.40;25.83;;;-2.30;99.90;;;;;;5041421;28;20033;-52
2024/01/14 05:24:45;;;;;;;38.65;23.40;;;-2.50;99.90;;;;;;5044975;28;20025;-52
2024/01/14 05:27:14;;;;;;;40.38;25.15;;;-2.80;99.90;;;;;;5039226;28;20103;-52
2024/01/14 05:29:41;;;;;;;38.78;23.83;;;-2.90;99.90;;;;;;5043627;28;20041;-52
2024/01/14 05:32:08;;;;;;;41.95;25.45;;;-2.50;99.90;;;;;;5039623;28;20384;-51
2024/01/14 05:34:34;;;;;;;45.53;27.48;;;-2.00;99.90;;;;;;5039116;28;20075;-52
2024/01/14 05:37:01;;;;;;;41.28;26.55;;;-1.80;99.90;;;;;;5044282;28;20029;-51
2024/01/14 05:39:27;;;;;;;43.15;28.00;;;-1.70;99.90;;;;;;5048388;28;20041;-50
2024/01/14 05:41:53;;;;;;;67.53;38.45;;;;;;;;;;5042846;28;20095;-52
2024/01/14 05:44:19;;;;;;;69.53;37.60;;;-1.30;99.90;;;;;;5039379;28;20030;-52
2024/01/14 05:46:45;;;;;;;59.90;33.90;;;-1.20;99.90;;;;;;5046545;28;20443;-52
2024/01/14 05:49:10;;;;;;;71.82;37.85;;;-1.10;99.90;;;;;;5044563;28;20041;-51
2024/01/14 05:51:37;;;;;;;79.93;47.17;;;-1.20;99.60;;;;;;5045686;28;20599;-53
2024/01/14 05:54:03;;;;;;;63.60;39.45;;;-1.10;99.90;;;;;;5050170;28;20028;-51
2024/01/14 05:56:30;;;;;;;45.78;30.10;;;-1.10;99.90;;;;;;5042858;28;20032;-52
2024/01/14 05:58:55;;;;;;;45.15;28.63;;;-1.10;99.70;;;;;;5042245;28;20170;-52
2024/01/14 06:01:22;;;;;;;54.08;34.28;;;-1.30;99.50;;;;;;5052314;28;20128;-51
2024/01/14 06:03:47;;;;;;;62.13;36.47;;;-1.60;99.60;;;;;;5039246;28;20114;-52
2024/01/14 06:06:13;;;;;;;59.55;36.20;;;-1.70;99.90;;;;;;5041485;28;20057;-51
2024/01/14 06:08:41;;;;;;;52.70;34.50;;;-1.60;99.90;;;;;;5041715;28;20045;-52
2024/01/14 06:11:07;;;;;;;53.22;30.83;;;-1.70;99.70;;;;;;5042613;28;20498;-51
2024/01/14 06:13:33;;;;;;;52.60;31.92;;;;;;;;;;5040955;28;20029;-51
2024/01/14 06:15:59;;;;;;;49.35;33.28;;;-2.50;99.90;;;;;;4993881;28;20264;-51
2024/01/14 06:18:25;;;;;;;58.28;37.55;;;-1.90;99.90;;;;;;5042967;28;20037;-51
2024/01/14 06:20:51;;;;;;;65.75;38.00;;;-1.90;99.90;;;;;;5039560;28;20511;-52
2024/01/14 06:23:17;;;;;;;74.78;40.63;;;;;;;;;;5039690;28;20385;-51
2024/01/14 06:25:43;;;;;;;51.78;26.15;;;-2.80;99.90;;;;;;5047937;28;20024;-52
2024/01/14 06:28:09;;;;;;;40.17;23.02;;;-3.20;99.90;;;;;;5038112;28;20269;-51
2024/01/14 06:30:34;;;;;;;48.55;30.67;;;-3.40;99.90;;;;;;5041341;28;20461;-52
2024/01/14 06:33:00;;;;;;;51.58;30.48;;;-3.30;99.90;;;;;;5040568;28;20119;-51
2024/01/14 06:35:26;;;;;;;28.27;16.90;;;-3.20;99.90;;;;;;5041386;28;20029;-51
2024/01/14 06:37:51;;;;;;;20.02;12.48;;;-3.40;99.90;;;;;;5040384;28;20044;-51
2024/01/14 06:40:17;;;;;;;33.03;21.80;;;-3.40;99.90;;;;;;5043090;28;20035;-51
2024/01/14 06:42:43;;;;;;;36.40;23.80;;;;;;;;;;5021761;28;20041;-51
2024/01/14 06:45:12;;;;;;;31.90;22.00;;;-3.00;99.90;;;;;;5044837;28;20021;-51
2024/01/14 06:47:38;;;;;;;33.08;22.40;;;-2.80;99.90;;;;;;5042568;28;20037;-52
2024/01/14 06:50:05;;;;;;;31.88;21.60;;;-2.90;99.90;;;;;;5041274;28;20527;-51
2024/01/14 06:52:31;;;;;;;31.98;21.48;;;;;;;;;;5027920;28;20041;-51
2024/01/14 06:54:57;;;;;;;49.03;31.20;;;;;;;;;;5047658;28;20033;-52
2024/01/14 06:57:23;;;;;;;76.18;48.83;;;;;;;;;;5043997;28;20091;-51
2024/01/14 06:59:49;;;;;;;72.15;46.30;;;-0.90;99.90;;;;;;5044186;28;20057;-51
2024/01/14 07:02:15;;;;;;;51.65;30.92;;;;;;;;;;5042118;28;20033;-51
2024/01/14 07:04:40;;;;;;;61.17;38.42;;;-0.30;99.90;;;;;;5039471;28;20024;-51
2024/01/14 07:07:08;;;;;;;67.20;43.17;;;;;;;;;;5036886;28;20064;-51
2024/01/14 07:09:34;;;;;;;56.05;34.67;;;-0.20;99.90;;;;;;5043786;28;20396;-51
2024/01/14 07:12:01;;;;;;;48.45;28.58;;;;;;;;;;5034748;28;20497;-51
2024/01/14 07:14:26;;;;;;;51.83;29.67;;;-0.90;99.90;;;;;;5036685;28;20389;-51
2024/01/14 07:16:52;;;;;;;40.13;26.20;;;-1.40;99.90;;;;;;5044165;28;20029;-51
2024/01/14 07:19:18;;;;;;;43.40;26.73;;;-1.60;99.90;;;;;;5041798;28;20145;-50
2024/01/14 07:21:44;;;;;;;45.90;27.83;;;-1.40;99.90;;;;;;5023406;28;20044;-52
2024/01/14 07:24:09;;;;;;;43.38;27.10;;;-1.40;99.90;;;;;;5040952;28;20025;-51
2024/01/14 07:26:35;;;;;;;44.53;26.45;;;;;;;;;;5049494;28;20116;-52
2024/01/14 07:29:01;;;;;;;35.50;20.75;;;;;;;;;;5026347;28;20061;-51
2024/01/14 07:31:30;;;;;;;28.38;16.73;;;-0.80;99.90;;;;;;5040413;28;20087;-51
2024/01/14 07:33:56;;;;;;;42.10;24.88;;;-1.20;99.90;;;;;;5037371;28;20104;-51
2024/01/14 07:36:22;;;;;;;40.95;21.60;;;-1.30;99.90;;;;;;5048261;28;20033;-51
2024/01/14 07:38:50;;;;;;;28.45;19.13;;;-1.40;99.90;;;;;;5049693;28;20044;-52
2024/01/14 07:41:16;;;;;;;31.58;20.80;;;-1.50;99.90;;;;;;5046886;28;20068;-52
2024/01/14 07:43:42;;;;;;;39.47;23.20;;;-1.20;99.90;;;;;;5017128;28;20050;-51
2024/01/14 07:46:08;;;;;;;47.22;28.45;;;;;;;;;;5019020;28;20474;-52
2024/01/14 07:48:35;;;;;;;60.40;32.95;;;;;;;;;;5021916;28;20402;-51
2024/01/14 07:51:01;;;;;;;55.85;30.20;;;;;;;;;;5033801;28;20038;-51
2024/01/14 07:53:27;;;;;;;36.95;24.52;;;0.30;99.90;;;;;;5015320;28;20046;-51
2024/01/14 07:55:53;;;;;;;38.03;24.60;;;0.50;99.90;;;;;;4994498;28;20044;-51
2024/01/14 07:58:18;;;;;;;40.00;23.73;;;0.70;99.90;;;;;;5020119;28;20116;-52
2024/01/14 08:00:45;;;;;;;38.80;24.77;;;0.90;99.60;;;;;;5014596;28;20079;-51
2024/01/14 08:03:11;;;;;;;86.55;54.30;;;1.10;98.20;;;;;;5021872;28;20048;-51
2024/01/14 08:05:38;;;;;;;54.08;34.90;;;0.90;98.20;;;;;;5021614;28;20037;-51
2024/01/14 08:08:04;;;;;;;39.53;24.95;;;0.60;98.00;;;;;;5022423;28;20785;-51
2024/01/14 08:10:32;;;;;;;37.45;24.88;;;0.60;98.60;;;;;;5021241;28;20049;-51
2024/01/14 08:12:57;;;;;;;68.78;46.35;;;0.60;99.30;;;;;;5026063;28;20037;-51
2024/01/14 08:15:23;;;;;;;81.85;56.40;;;1.80;99.00;;;;;;5041263;28;20095;-51
2024/01/14 08:17:49;;;;;;;50.97;34.40;;;;;;;;;;5042456;28;20033;-52
2024/01/14 08:20:15;;;;;;;43.80;31.60;;;5.50;95.10;;;;;;5045854;28;20120;-51
2024/01/14 08:22:40;;;;;;;32.60;22.58;;;6.40;94.70;;;;;;5043232;28;20107;-52
2024/01/14 08:25:10;;;;;;;36.75;24.10;;;7.10;91.70;;;;;;5045440;28;20046;-51
2024/01/14 08:27:38;;;;;;;63.75;44.55;;;8.20;91.50;;;;;;5043139;28;20071;-52
2024/01/14 08:30:05;;;;;;;64.55;43.45;;;;;;;;;;5044085;28;20469;-51
2024/01/14 08:47:15;;;;;;;74.60;56.65;;;;;;;;;;5344489;22;1503599;-52
2024/01/14 08:49:41;;;;;;;57.13;45.83;;;;;;;;;;5092510;28;20037;-51
2024/01/14 08:52:08;;;;;;;66.68;50.60;;;;;;;;;;5081467;28;20118;-51
2024/01/14 08:54:34;;;;;;;230.32;106.45;;;16.40;75.50;;;;;;5086854;28;20036;-51
2024/01/14 08:57:00;;;;;;;54.30;37.85;;;16.90;75.80;;;;;;5086336;28;20032;-50
2024/01/14 08:59:26;;;;;;;42.95;32.83;;;17.00;74.00;;;;;;5086510;28;20031;-51
2024/01/14 09:01:52;;;;;;;34.97;28.60;;;;;;;;;;5084664;28;20045;-51
2024/01/14 09:04:19;;;;;;;36.80;29.88;;;18.20;89.80;;;;;;5086449;28;20459;-49
2024/01/14 09:06:45;;;;;;;33.80;28.00;;;;;;;;;;5078291;28;20411;-49
2024/01/14 09:09:11;;;;;;;45.20;33.53;;;19.10;70.80;;;;;;5082846;28;20040;-50
2024/01/14 09:11:38;;;;;;;41.28;32.13;;;;;;;;;;5086363;28;20447;-50
2024/01/14 09:14:04;;;;;;;112.82;63.13;;;;;;;;;;5086874;28;20375;-50
2024/01/14 09:16:30;;;;;;;57.65;43.83;;;19.80;68.60;;;;;;5080835;28;20566;-50
2024/01/14 09:18:56;;;;;;;43.28;32.00;;;20.20;68.20;;;;;;5079928;28;20035;-50
2024/01/14 09:21:21;;;;;;;40.95;30.88;;;20.20;67.50;;;;;;5086074;28;20437;-50
2024/01/14 09:23:48;;;;;;;38.30;32.40;;;;;;;;;;5083802;28;20063;-50
2024/01/14 09:26:13;;;;;;;52.28;41.65;;;20.40;66.70;;;;;;5078533;28;20067;-50
2024/01/14 09:28:39;;;;;;;70.95;49.33;;;20.10;66.90;;;;;;5082688;28;20079;-50
2024/01/14 09:31:06;;;;;;;74.10;50.13;;;20.40;66.50;;;;;;5080062;28;20476;-51
2024/01/14 09:33:32;;;;;;;81.20;53.50;;;;;;;;;;5078852;28;20041;-50
2024/01/14 09:36:07;;;;;;;76.45;50.30;;;20.50;65.20;;;;;;5078443;28;20064;-50
2024/01/14 09:38:33;;;;;;;92.90;67.65;;;;;;;;;;5082233;28;20060;-50
2024/01/14 09:41:27;;;;;;;49.80;39.72;;;20.70;95.50;;;;;;5079746;28;20086;-51
2024/01/14 09:43:52;;;;;;;40.58;32.60;;;20.80;64.80;;;;;;5072825;28;20040;-50
2024/01/14 09:46:18;;;;;;;39.75;32.20;;;;;;;;;;5076871;28;20037;-50
2024/01/14 09:48:48;;;;;;;34.60;29.77;;;20.60;64.50;;;;;;5049379;28;20060;-49
2024/01/14 09:51:17;;;;;;;35.03;29.73;;;20.60;64.60;;;;;;5061984;28;20717;-50
2024/01/14 09:53:44;;;;;;;41.05;29.92;;;;;;;;;;5068090;28;20033;-50
2024/01/14 09:56:13;;;;;;;39.08;29.15;;;21.50;63.80;;;;;;5015514;28;20045;-51
2024/01/14 09:58:40;;;;;;;31.52;27.17;;;21.40;64.20;;;;;;5044224;28;20047;-50
2024/01/14 10:01:09;;;;;;;32.35;27.98;;;21.40;64.00;;;;;;5071285;28;20109;-50
2024/01/14 10:03:35;;;;;;;50.55;28.88;;;21.40;64.00;;;;;;5070916;28;20575;-50
2024/01/14 10:06:01;;;;;;;30.90;26.05;;;21.20;64.10;;;;;;5071287;28;20032;-50
2024/01/14 10:08:28;;;;;;;30.75;26.00;;;21.20;64.00;;;;;;5043515;28;20040;-51
2024/01/14 10:10:53;;;;;;;30.20;26.42;;;21.50;64.00;;;;;;5068752;28;20115;-50
2024/01/14 10:13:22;;;;;;;51.22;46.10;;;21.30;63.80;;;;;;5070568;28;20445;-50
2024/01/14 10:15:49;;;;;;;37.50;33.42;;;21.50;63.40;;;;;;5033682;28;20063;-50
2024/01/14 10:18:16;;;;;;;36.05;30.55;;;21.30;63.30;;;;;;5063878;28;20028;-51
2024/01/14 10:20:42;;;;;;;30.20;23.95;;;21.30;63.70;;;;;;5070891;28;20044;-51
2024/01/14 10:23:08;;;;;;;38.20;32.95;;;;;;;;;;5049570;28;20047;-49
2024/01/14 10:25:34;;;;;;;34.90;30.23;;;20.60;96.30;;;;;;5069202;28;20021;-50
2024/01/14 10:28:07;;;;;;;32.03;27.67;;;20.50;64.50;;;;;;5070551;28;20138;-50
2024/01/14 10:30:34;;;;;;;61.50;42.20;;;20.60;64.20;;;;;;5043856;28;20461;-49
2024/01/14 10:33:01;;;;;;;48.75;35.85;;;20.20;64.20;;;;;;5068052;28;20032;-49
2024/01/14 10:35:30;;;;;;;59.67;39.78;;;20.10;64.60;;;;;;5069914;28;20037;-49
2024/01/14 10:37:56;;;;;;;32.05;23.67;;;20.10;64.50;;;;;;5048724;28;20041;-50
2024/01/14 10:40:22;;;;;;;33.90;25.90;;;20.00;64.40;;;;;;5085303;28;20548;-49
2024/01/14 10:42:48;;;;;;;30.48;24.30;;;20.10;64.50;;;;;;5068872;28;20044;-49
2024/01/14 10:45:14;;;;;;;28.60;24.05;;;19.10;64.20;;;;;;5067699;28;20097;-49
2024/01/14 10:47:46;;;;;;;30.05;24.33;;;19.10;64.80;;;;;;5063756;28;20095;-49
2024/01/14 10:50:12;;;;;;;;;;;19.40;65.30;;;;;;5064981;28;20115;-49
2024/01/14 10:52:42;;;;;;;28.92;22.40;;;19.20;65.20;;;;;;5069460;28;19936;-49
2024/01/14 10:55:20;;;;;;;26.38;21.65;;;19.20;65.50;;;;;;5065952;28;20041;-49
2024/01/14 10:57:48;;;;;;;31.75;24.40;;;19.20;66.00;;;;;;5082808;28;20036;-50
2024/01/14 11:00:15;;;;;;;29.77;23.00;;;18.60;65.90;;;;;;5069318;28;20391;-49
2024/01/14 11:02:42;;;;;;;29.48;22.02;;;18.30;65.90;;;;;;5070036;28;20032;-50
2024/01/14 11:05:09;;;;;;;27.88;21.83;;;17.90;66.30;;;;;;5069827;28;20038;-50
2024/01/14 11:07:35;;;;;;;25.23;19.95;;;17.90;66.70;;;;;;5071014;28;20028;-50
2024/01/14 11:10:02;;;;;;;24.40;20.17;;;17.90;66.60;;;;;;5071152;28;20032;-48
2024/01/14 11:12:50;;;;;;;25.50;18.92;;;18.00;67.00;;;;;;5052143;28;20089;-48
2024/01/14 11:15:29;;;;;;;24.83;18.55;;;17.60;67.10;;;;;;5080565;28;20045;-49
2024/01/14 11:18:06;;;;;;;27.23;19.38;;;17.20;67.50;;;;;;5069696;28;20426;-50
2024/01/14 11:20:36;;;;;;;27.52;18.85;;;16.80;68.00;;;;;;5067783;28;20025;-49
2024/01/14 11:23:03;;;;;;;20.77;16.05;;;;;;;;;;5060511;28;20036;-49
2024/01/14 11:25:33;;;;;;;26.45;18.83;;;15.30;67.90;;;;;;5068296;28;20033;-50
2024/01/14 11:28:02;;;;;;;25.08;16.52;;;15.10;68.60;;;;;;5063686;28;20124;-48
2024/01/14 11:30:47;;;;;;;21.15;15.45;;;14.80;69.20;;;;;;5048952;28;20403;-48
2024/01/14 11:33:32;;;;;;;23.08;16.70;;;;;;;;;;5069084;28;20107;-49
2024/01/14 11:36:00;;;;;;;25.80;16.60;;;14.10;69.30;;;;;;5063177;28;20504;-50
2024/01/14 11:38:34;;;;;;;38.05;28.20;;;14.00;70.80;;;;;;5049868;28;20052;-49
2024/01/14 11:41:28;;;;;;;43.63;32.13;;;13.70;71.40;;;;;;5067747;28;20029;-50
2024/01/14 11:44:08;;;;;;;32.78;24.38;;;13.20;72.20;;;;;;5066325;28;20040;-49
2024/01/14 11:46:40;;;;;;;28.42;22.65;;;13.00;73.90;;;;;;5068747;28;20025;-48
2024/01/14 11:49:10;;;;;;;30.30;22.75;;;12.90;74.10;;;;;;5066889;28;20051;-50
2024/01/14 11:51:43;;;;;;;30.50;23.83;;;;;;;;;;5067130;28;20040;-48
2024/01/14 11:54:10;;;;;;;34.15;26.52;;;11.30;74.70;;;;;;5049044;28;20067;-48
2024/01/14 11:56:36;;;;;;;31.08;24.10;;;11.30;76.70;;;;;;5067803;28;20750;-49
2024/01/14 11:59:13;;;;;;;37.25;27.00;;;11.20;77.20;;;;;;5067657;28;20146;-48
2024/01/14 12:01:39;;;;;;;35.40;26.98;;;10.30;78.00;;;;;;5067959;28;20032;-49
2024/01/14 12:04:08;;;;;;;37.55;28.90;;;;;;;;;;5069360;28;20028;-49
2024/01/14 12:06:45;;;;;;;34.63;25.73;;;9.10;78.90;;;;;;5047383;28;20078;-49
2024/01/14 12:09:13;;;;;;;34.72;25.15;;;10.10;80.10;;;;;;5064631;28;20677;-49
2024/01/14 12:11:41;;;;;;;38.13;27.20;;;10.40;80.40;;;;;;5064097;28;20606;-50
2024/01/14 12:14:07;;;;;;;33.78;25.65;;;9.90;80.80;;;;;;5063652;28;20097;-50
2024/01/14 12:16:33;;;;;;;32.08;24.90;;;9.80;81.50;;;;;;5067668;28;20574;-49
2024/01/14 12:18:59;;;;;;;36.42;25.52;;;9.40;82.20;;;;;;5048210;28;20502;-50
2024/01/14 12:21:27;;;;;;;34.97;27.38;;;9.00;83.10;;;;;;5059388;28;20035;-50
2024/01/14 12:23:53;;;;;;;33.05;24.02;;;8.80;83.90;;;;;;5066809;28;20043;-50
2024/01/14 12:26:22;;;;;;;33.33;24.13;;;8.40;84.30;;;;;;5065858;28;20036;-49
2024/01/14 12:28:48;;;;;;;32.17;24.27;;;8.10;85.20;;;;;;5063149;28;20040;-49
2024/01/14 12:31:19;;;;;;;33.95;23.20;;;8.30;85.10;;;;;;5068914;28;20024;-50
2024/01/14 12:33:46;;;;;;;31.38;24.48;;;8.20;85.40;;;;;;5068326;28;20134;-49
2024/01/14 12:36:13;;;;;;;33.08;24.27;;;7.90;86.00;;;;;;5068950;28;20032;-50
2024/01/14 12:38:39;;;;;;;27.30;19.75;;;8.10;86.00;;;;;;5047771;28;20136;-48
2024/01/14 12:41:05;;;;;;;30.30;21.45;;;8.00;85.70;;;;;;5063489;28;20402;-50
2024/01/14 12:43:31;;;;;;;32.28;24.10;;;8.00;86.20;;;;;;5062142;28;20025;-50
2024/01/14 12:45:56;;;;;;;30.80;22.67;;;8.40;86.40;;;;;;5067862;28;20055;-51
2024/01/14 12:48:24;;;;;;;28.65;21.33;;;8.30;86.30;;;;;;5068034;28;20054;-49
2024/01/14 12:51:00;;;;;;;23.45;17.33;;;8.30;85.80;;;;;;5068348;28;20082;-48
2024/01/14 12:53:28;;;;;;;31.60;23.05;;;7.50;85.70;;;;;;5041287;28;20037;-49